Terminal Aerodrome Forecast
Issued by NWS

Home | Current Version | Previous Version | Text Only | Print | Product List | Glossary On
Versions: 1 2 3 4 5 6 7 8 9 10 11 12 13 14 15 16 17 18 19
000
FTPA31 PHFO 240520
TAFHNY
TAF
PHNY 240520Z 2406/2506 13005KT P6SM VCSH SCT015 BKN150
     FM241200 05006KT P6SM VCSH SCT015 SCT035 BKN150
     FM241900 27007KT P6SM VCSH SCT015 BKN035
     FM250200 04012KT P6SM VCSH SCT015 BKN035=

USA.gov is the U.S. government's official web portal to all federal, state and local government web resources and services.